Time;durP1;ratioP1;P1;durP2;ratioP2;P2;SDS_P1;SDS_P2;PMS_P1;PMS_P2;Temp;Humidity;BMP_temperature;BMP_pressure;BME280_temperature;BME280_humidity;BME280_pressure;Samples;Min_cycle;Max_cycle;Signal;HPM_P1;HPM_P2
2023/01/14 00:01:33;;;;;;;;;;;9.60;99.90;;;;;;5070802;28;19912;-79
2023/01/14 00:03:59;;;;;;;;;;;9.60;99.90;;;;;;5071603;28;20308;-80
2023/01/14 00:06:26;;;;;;;;;;;9.50;99.90;;;;;;5071356;28;19916;-82
2023/01/14 00:08:56;;;;;;;;;;;9.50;99.90;;;;;;5070858;28;19915;-82
2023/01/14 00:11:45;;;;;;;;;;;9.50;99.90;;;;;;5070454;28;20003;-83
2023/01/14 00:14:07;;;;;;;;;;;9.50;99.90;;;;;;5071480;28;19912;-81
2023/01/14 00:16:35;;;;;;;;;;;9.40;99.90;;;;;;5071339;28;19909;-81
2023/01/14 00:19:01;;;;;;;;;;;9.40;99.90;;;;;;5071727;28;19909;-82
2023/01/14 00:21:27;;;;;;;;;;;9.40;99.90;;;;;;5071418;28;20338;-81
2023/01/14 00:23:53;;;;;;;;;;;9.40;99.90;;;;;;5070135;28;19913;-82
2023/01/14 00:26:19;;;;;;;;;;;9.40;99.90;;;;;;5071601;28;20346;-87
2023/01/14 00:28:45;;;;;;;;;;;9.40;99.90;;;;;;5072037;28;19967;-81
2023/01/14 00:31:12;;;;;;;;;;;9.40;99.90;;;;;;5072033;28;19908;-81
2023/01/14 00:33:38;;;;;;;;;;;9.40;99.90;;;;;;5071526;28;19909;-81
2023/01/14 00:36:05;;;;;;;;;;;9.30;99.90;;;;;;5069763;28;19920;-80
2023/01/14 00:38:31;;;;;;;;;;;9.30;99.90;;;;;;5071301;28;20059;-80
2023/01/14 00:41:06;;;;;;;;;;;9.30;99.90;;;;;;5070191;28;20361;-81
2023/01/14 00:43:32;;;;;;;;;;;9.30;99.90;;;;;;5070879;28;19913;-80
2023/01/14 00:45:58;;;;;;;;;;;9.30;99.90;;;;;;5069707;28;19912;-81
2023/01/14 00:48:23;;;;;;;;;;;9.30;99.90;;;;;;5073466;28;19919;-83
2023/01/14 00:50:49;;;;;;;;;;;9.30;99.90;;;;;;5076055;28;19995;-83
2023/01/14 00:53:14;;;;;;;;;;;9.30;99.90;;;;;;5074384;28;19925;-83
2023/01/14 00:55:40;;;;;;;;;;;9.30;99.90;;;;;;5074916;28;19909;-83
2023/01/14 00:58:06;;;;;;;;;;;9.30;99.90;;;;;;5074110;28;20330;-83
2023/01/14 01:00:31;;;;;;;;;;;9.30;99.90;;;;;;5075422;28;19908;-81
2023/01/14 01:02:57;;;;;;;;;;;9.30;99.90;;;;;;5075836;28;20357;-82
2023/01/14 01:05:23;;;;;;;;;;;9.30;99.90;;;;;;5075942;28;19916;-88
2023/01/14 01:07:48;;;;;;;;;;;9.30;99.90;;;;;;5074527;28;19914;-81
2023/01/14 01:10:14;;;;;;;;;;;9.30;99.90;;;;;;5074331;28;19920;-80
2023/01/14 01:12:40;;;;;;;;;;;9.30;99.90;;;;;;5074509;28;19958;-80
2023/01/14 01:15:06;;;;;;;;;;;9.30;99.90;;;;;;5075743;28;20007;-79
2023/01/14 01:17:31;;;;;;;;;;;9.30;99.90;;;;;;5074500;28;19947;-79
2023/01/14 01:19:57;;;;;;;;;;;9.20;99.90;;;;;;5075671;28;19909;-78
2023/01/14 01:22:22;;;;;;;;;;;9.20;99.90;;;;;;5075659;28;19908;-79
2023/01/14 01:24:50;;;;;;;;;;;9.20;99.90;;;;;;5074719;28;20015;-79
2023/01/14 01:27:15;;;;;;;;;;;9.20;99.90;;;;;;5074705;28;19919;-78
2023/01/14 01:29:41;;;;;;;;;;;9.20;99.90;;;;;;5074797;28;20335;-79
2023/01/14 01:32:07;;;;;;;;;;;9.20;99.90;;;;;;5074565;28;19956;-79
2023/01/14 01:34:32;;;;;;;;;;;9.20;99.90;;;;;;5073843;28;20369;-80
2023/01/14 01:36:58;;;;;;;;;;;9.20;99.90;;;;;;5073884;28;20316;-80
2023/01/14 01:39:23;;;;;;;;;;;9.20;99.90;;;;;;5073878;28;19922;-80
2023/01/14 01:41:49;;;;;;;;;;;9.20;99.90;;;;;;5072435;28;20349;-79
2023/01/14 01:44:14;;;;;;;;;;;9.10;99.90;;;;;;5073888;28;19920;-80
2023/01/14 01:46:41;;;;;;;;;;;9.10;99.90;;;;;;5073337;28;19957;-80
2023/01/14 01:49:06;;;;;;;;;;;9.10;99.90;;;;;;5073485;28;19916;-80
2023/01/14 01:51:33;;;;;;;;;;;9.00;99.90;;;;;;5073280;28;20369;-81
2023/01/14 01:53:59;;;;;;;;;;;9.10;99.90;;;;;;5073403;28;19920;-81
2023/01/14 01:56:28;;;;;;;;;;;9.00;99.90;;;;;;5073497;28;19919;-86
2023/01/14 01:58:55;;;;;;;;;;;9.10;99.90;;;;;;5072425;28;20270;-81
2023/01/14 02:01:21;;;;;;;;;;;9.00;99.90;;;;;;5074034;28;19912;-81
2023/01/14 02:03:47;;;;;;;;;;;9.00;99.90;;;;;;5073516;28;20050;-80
2023/01/14 02:06:14;;;;;;;;;;;9.00;99.90;;;;;;5073733;28;20063;-80
2023/01/14 02:08:42;;;;;;;;;;;9.00;99.90;;;;;;5073323;28;19916;-80
2023/01/14 02:11:07;;;;;;;;;;;9.00;99.90;;;;;;5073836;28;20249;-79
2023/01/14 02:13:35;;;;;;;;;;;9.00;99.90;;;;;;5073323;28;19999;-80
2023/01/14 02:16:16;;;;;;;;;;;9.00;99.90;;;;;;5073779;28;19952;-80
2023/01/14 02:18:45;;;;;;;;;;;9.00;99.90;;;;;;5073269;28;19909;-80
2023/01/14 02:21:22;;;;;;;;;;;8.90;99.90;;;;;;5073296;28;19908;-80
2023/01/14 02:23:57;;;;;;;;;;;8.90;99.90;;;;;;5069030;28;19952;-79
2023/01/14 02:26:22;;;;;;;;;;;8.90;99.90;;;;;;5053077;28;20366;-80
2023/01/14 02:28:48;;;;;;;;;;;9.00;99.90;;;;;;5052686;28;19905;-80
2023/01/14 02:31:16;;;;;;;;;;;8.90;99.90;;;;;;5053434;28;19912;-80
2023/01/14 02:33:42;;;;;;;;;;;8.90;99.90;;;;;;5052839;28;19986;-80
2023/01/14 02:36:17;;;;;;;;;;;8.90;99.90;;;;;;5053186;28;19964;-80
2023/01/14 02:38:54;;;;;;;;;;;8.90;99.90;;;;;;5052959;28;19941;-80
2023/01/14 02:44:07;;;;;;;;;;;8.90;99.90;;;;;;5051897;28;19909;-79
2023/01/14 02:44:13;;;;;;;;;;;8.90;99.90;;;;;;5052917;28;19937;-79
2023/01/14 02:46:48;;;;;;;;;;;8.90;99.90;;;;;;5051246;28;20289;-80
2023/01/14 02:49:15;;;;;;;;;;;8.90;99.90;;;;;;5052922;28;19963;-80
2023/01/14 02:51:41;;;;;;;;;;;8.90;99.90;;;;;;5052640;28;19916;-80
2023/01/14 02:54:07;;;;;;;;;;;8.90;99.90;;;;;;5052583;28;19920;-81
2023/01/14 02:56:33;;;;;;;;;;;8.80;99.90;;;;;;5052197;28;19954;-82
2023/01/14 02:58:58;;;;;;;;;;;8.80;99.90;;;;;;5051515;28;19919;-81
2023/01/14 03:01:35;;;;;;;;;;;8.80;99.90;;;;;;5067768;28;19917;-81
2023/01/14 03:04:00;;;;;;;;;;;8.80;99.90;;;;;;5072385;28;19938;-80
2023/01/14 03:06:35;;;;;;;;;;;8.80;99.90;;;;;;5072390;28;19912;-80
2023/01/14 03:09:16;;;;;;;;;;;8.80;99.90;;;;;;5071716;28;20324;-80
2023/01/14 03:11:47;;;;;;;;;;;8.80;99.90;;;;;;5070563;28;19908;-81
2023/01/14 03:14:39;;;;;;;;;;;8.90;99.90;;;;;;5072746;28;19915;-80
2023/01/14 03:17:08;;;;;;;;;;;8.80;99.90;;;;;;5069103;28;20070;-81
2023/01/14 03:19:38;;;;;;;;;;;8.80;99.90;;;;;;5071673;28;19914;-85
2023/01/14 03:22:05;;;;;;;;;;;8.90;99.90;;;;;;5072119;28;20310;-80
2023/01/14 03:24:40;;;;;;;;;;;8.90;99.90;;;;;;5071817;28;19927;-80
2023/01/14 03:27:07;;;;;;;;;;;8.80;99.90;;;;;;5072130;28;20261;-78
2023/01/14 03:29:37;;;;;;;;;;;8.90;99.90;;;;;;5071762;28;19920;-84
2023/01/14 03:32:07;;;;;;;;;;;8.80;99.90;;;;;;5071821;28;19916;-79
2023/01/14 03:34:38;;;;;;;;;;;8.80;99.90;;;;;;5071387;28;19908;-83
2023/01/14 03:37:05;;;;;;;;;;;8.80;99.90;;;;;;5057173;28;19936;-81
2023/01/14 03:39:31;;;;;;;;;;;8.80;99.90;;;;;;5051850;28;19909;-79
2023/01/14 03:42:18;;;;;;;;;;;8.90;99.90;;;;;;5051010;28;19932;-79
2023/01/14 03:44:51;;;;;;;;;;;8.90;99.90;;;;;;5051401;28;19919;-80
2023/01/14 03:47:17;;;;;;;;;;;8.90;99.90;;;;;;5051412;28;19919;-80
2023/01/14 03:49:43;;;;;;;;;;;8.90;99.90;;;;;;5051095;28;19909;-80
2023/01/14 03:52:27;;;;;;;;;;;8.90;99.90;;;;;;5051666;28;20022;-78
2023/01/14 03:55:00;;;;;;;;;;;8.90;99.90;;;;;;5051294;28;19985;-78
2023/01/14 03:57:41;;;;;;;;;;;8.90;99.90;;;;;;5057027;28;20098;-78
2023/01/14 04:00:11;;;;;;;;;;;8.80;99.90;;;;;;5070192;28;19985;-78
2023/01/14 04:02:38;;;;;;;;;;;8.80;99.90;;;;;;5070994;28;19908;-79
2023/01/14 04:05:05;;;;;;;;;;;8.80;99.90;;;;;;5071375;28;19913;-77
2023/01/14 04:07:31;;;;;;;;;;;8.80;99.90;;;;;;5070985;28;20007;-79
2023/01/14 04:09:56;;;;;;;;;;;8.80;99.90;;;;;;5069554;28;19916;-78
2023/01/14 04:12:22;;;;;;;;;;;8.80;99.90;;;;;;5070586;28;19908;-77
2023/01/14 04:17:45;;;;;;;;;;;8.70;99.90;;;;;;5047026;28;19920;-77
2023/01/14 04:20:11;;;;;;;;;;;8.70;99.90;;;;;;5071199;28;19912;-77
2023/01/14 04:22:36;;;;;;;;;;;8.70;99.90;;;;;;5070321;28;19912;-83
2023/01/14 04:25:02;;;;;;;;;;;8.70;99.90;;;;;;5070299;28;19916;-77
2023/01/14 04:27:27;;;;;;;;;;;8.80;99.90;;;;;;5071430;28;19962;-77
2023/01/14 04:29:53;;;;;;;;;;;8.80;99.90;;;;;;5070659;28;20401;-77
2023/01/14 04:32:18;;;;;;;;;;;8.80;99.90;;;;;;5070653;28;19909;-77
2023/01/14 04:34:44;;;;;;;;;;;8.90;99.90;;;;;;5069364;28;20020;-77
2023/01/14 04:37:10;;;;;;;;;;;8.90;99.90;;;;;;5070610;28;19914;-77
2023/01/14 04:39:35;;;;;;;;;;;8.90;99.90;;;;;;5070859;28;19931;-78
2023/01/14 04:44:46;;;;;;;;;;;8.90;99.90;;;;;;5070013;28;19923;-79
2023/01/14 04:47:12;;;;;;;;;;;8.80;99.90;;;;;;5070827;28;19935;-80
2023/01/14 04:49:37;;;;;;;;;;;8.70;99.90;;;;;;5051558;28;19909;-86
2023/01/14 04:52:03;;;;;;;;;;;8.60;99.90;;;;;;5048917;28;19947;-80
2023/01/14 04:54:29;;;;;;;;;;;8.50;99.90;;;;;;5050952;28;20009;-79
2023/01/14 04:56:54;;;;;;;;;;;8.50;99.90;;;;;;5050169;28;20321;-79
2023/01/14 04:59:20;;;;;;;;;;;8.40;99.90;;;;;;5051356;28;19916;-79
2023/01/14 05:01:46;;;;;;;;;;;8.40;99.90;;;;;;5050539;28;19915;-79
2023/01/14 05:04:11;;;;;;;;;;;8.30;99.90;;;;;;5051286;28;20046;-78
2023/01/14 05:06:37;;;;;;;;;;;8.30;99.90;;;;;;5049934;28;19983;-78
2023/01/14 05:09:02;;;;;;;;;;;8.20;99.90;;;;;;5050537;28;19908;-78
2023/01/14 05:11:28;;;;;;;;;;;8.20;99.90;;;;;;5050889;28;19936;-77
2023/01/14 05:13:53;;;;;;;;;;;8.20;99.90;;;;;;5050422;28;19935;-78
2023/01/14 05:16:19;;;;;;;;;;;8.20;99.90;;;;;;5050496;28;19913;-77
2023/01/14 05:18:45;;;;;;;;;;;8.20;99.90;;;;;;5050343;28;19912;-78
2023/01/14 05:21:10;;;;;;;;;;;8.20;99.90;;;;;;5049322;28;19908;-77
2023/01/14 05:23:38;;;;;;;;;;;8.10;99.90;;;;;;5049391;28;20533;-77
2023/01/14 05:26:04;;;;;;;;;;;8.10;99.90;;;;;;5049998;28;19912;-76
2023/01/14 05:28:30;;;;;;;;;;;8.10;99.90;;;;;;5050607;28;19932;-76
2023/01/14 05:30:55;;;;;;;;;;;8.00;99.90;;;;;;5049813;28;20230;-76
2023/01/14 05:33:21;;;;;;;;;;;8.00;99.90;;;;;;5052841;28;19908;-76
2023/01/14 05:35:46;;;;;;;;;;;7.90;99.90;;;;;;5053656;28;19922;-76
2023/01/14 05:38:12;;;;;;;;;;;8.00;99.90;;;;;;5054619;28;19916;-77
2023/01/14 05:40:37;;;;;;;;;;;8.00;99.90;;;;;;5054430;28;20324;-76
2023/01/14 05:45:51;;;;;;;;;;;7.90;99.90;;;;;;5053947;28;20018;-77
2023/01/14 05:48:21;;;;;;;;;;;7.90;99.90;;;;;;5054203;28;19909;-77
2023/01/14 05:50:54;;;;;;;;;;;7.80;99.90;;;;;;5053448;28;20231;-77
2023/01/14 05:53:20;;;;;;;;;;;7.80;99.90;;;;;;5053914;28;19948;-77
2023/01/14 05:55:45;;;;;;;;;;;7.80;99.90;;;;;;5053183;28;19923;-78
2023/01/14 05:58:11;;;;;;;;;;;7.70;99.90;;;;;;5053851;28;19909;-77
2023/01/14 06:06:22;;;;;;;;;;;7.60;99.90;;;;;;5073328;28;19931;-77
2023/01/14 06:09:06;;;;;;;;;;;7.60;99.90;;;;;;5071679;28;20203;-77
2023/01/14 06:11:32;;;;;;;;;;;7.50;99.90;;;;;;5073701;28;19947;-77
2023/01/14 06:13:58;;;;;;;;;;;7.50;99.90;;;;;;5073379;28;19909;-77
2023/01/14 06:16:27;;;;;;;;;;;7.40;99.90;;;;;;5054767;28;19928;-77
2023/01/14 06:18:52;;;;;;;;;;;7.30;99.90;;;;;;5053170;28;20338;-77
2023/01/14 06:21:19;;;;;;;;;;;7.30;99.90;;;;;;5053898;28;19909;-76
2023/01/14 06:23:46;;;;;;;;;;;7.30;99.90;;;;;;5053092;28;20086;-82
2023/01/14 06:26:15;;;;;;;;;;;7.20;99.90;;;;;;5053456;28;19908;-76
2023/01/14 06:28:42;;;;;;;;;;;7.20;99.90;;;;;;5053092;28;19993;-76
2023/01/14 06:31:15;;;;;;;;;;;7.20;99.90;;;;;;5051224;28;20262;-75
2023/01/14 06:33:41;;;;;;;;;;;7.20;99.90;;;;;;5053287;28;19909;-78
2023/01/14 06:36:07;;;;;;;;;;;7.20;99.90;;;;;;5052756;28;20433;-76
2023/01/14 06:38:33;;;;;;;;;;;7.10;99.90;;;;;;5053311;28;20015;-77
2023/01/14 06:40:59;;;;;;;;;;;7.10;99.90;;;;;;5052376;28;19921;-77
2023/01/14 06:43:25;;;;;;;;;;;7.10;99.90;;;;;;5053054;28;20392;-77
2023/01/14 06:45:51;;;;;;;;;;;7.10;99.90;;;;;;5052174;28;20004;-77
2023/01/14 06:48:16;;;;;;;;;;;7.00;99.90;;;;;;5053022;28;20359;-77
2023/01/14 06:50:42;;;;;;;;;;;7.00;99.90;;;;;;5062934;28;20015;-76
2023/01/14 06:53:08;;;;;;;;;;;7.00;99.90;;;;;;5071782;28;19927;-76
2023/01/14 06:55:33;;;;;;;;;;;7.00;99.90;;;;;;5072271;28;20277;-76
2023/01/14 06:57:59;;;;;;;;;;;7.00;99.90;;;;;;5071567;28;19908;-77
2023/01/14 07:00:24;;;;;;;;;;;7.00;99.90;;;;;;5073067;28;19977;-76
2023/01/14 07:02:50;;;;;;;;;;;7.00;99.90;;;;;;5072121;28;19948;-78
2023/01/14 07:05:16;;;;;;;;;;;7.00;99.90;;;;;;5072168;28;19924;-76
2023/01/14 07:07:43;;;;;;;;;;;7.00;99.90;;;;;;5072581;28;19972;-77
2023/01/14 07:10:09;;;;;;;;;;;7.00;99.90;;;;;;5071416;28;20010;-75
2023/01/14 07:12:35;;;;;;;;;;;7.00;99.90;;;;;;5061821;28;19952;-76
2023/01/14 07:15:00;;;;;;;;;;;7.00;99.90;;;;;;5052124;28;19999;-76
2023/01/14 07:17:26;;;;;;;;;;;7.00;99.90;;;;;;5052332;28;19985;-76
2023/01/14 07:19:52;;;;;;;;;;;6.90;99.90;;;;;;5052076;28;19952;-77
2023/01/14 07:22:17;;;;;;;;;;;7.00;99.90;;;;;;5052082;28;19909;-77
2023/01/14 07:24:43;;;;;;;;;;;6.90;99.90;;;;;;5052077;28;19994;-76
2023/01/14 07:27:08;;;;;;;;;;;6.90;99.90;;;;;;5051549;28;19949;-75
2023/01/14 07:29:34;;;;;;;;;;;7.00;99.90;;;;;;5051819;28;20301;-75
2023/01/14 07:32:00;;;;;;;;;;;7.00;99.90;;;;;;5051361;28;20022;-75
2023/01/14 07:34:25;;;;;;;;;;;7.00;99.90;;;;;;5051717;28;19928;-76
2023/01/14 07:36:51;;;;;;;;;;;6.90;99.90;;;;;;5051507;28;19996;-84
2023/01/14 07:39:17;;;;;;;;;;;6.90;99.90;;;;;;5051655;28;20301;-77
2023/01/14 07:41:43;;;;;;;;;;;6.90;99.90;;;;;;5050161;28;20023;-76
2023/01/14 07:44:08;;;;;;;;;;;7.00;99.90;;;;;;5050879;28;19917;-77
2023/01/14 07:46:34;;;;;;;;;;;7.00;99.90;;;;;;5051263;28;19931;-77
2023/01/14 07:48:59;;;;;;;;;;;6.90;99.90;;;;;;5050467;28;19913;-77
2023/01/14 07:51:25;;;;;;;;;;;6.90;99.90;;;;;;5051350;28;20016;-76
2023/01/14 07:53:51;;;;;;;;;;;6.80;99.90;;;;;;5049228;28;20317;-83
2023/01/14 07:56:16;;;;;;;;;;;6.80;99.90;;;;;;5050923;28;19991;-76
2023/01/14 07:58:42;;;;;;;;;;;6.70;99.90;;;;;;5051636;28;20371;-77
2023/01/14 08:01:09;;;;;;;;;;;6.70;99.90;;;;;;5050829;28;19908;-76
2023/01/14 08:03:35;;;;;;;;;;;6.70;99.90;;;;;;5051477;28;19979;-77
2023/01/14 08:06:04;;;;;;;;;;;6.70;99.90;;;;;;5050837;28;19916;-77
2023/01/14 08:08:30;;;;;;;;;;;6.70;99.90;;;;;;5051238;28;19916;-76
2023/01/14 08:10:59;;;;;;;;;;;6.70;99.90;;;;;;5050887;28;20305;-77
2023/01/14 08:13:27;;;;;;;;;;;6.70;99.90;;;;;;5051606;28;20271;-77
2023/01/14 08:15:53;;;;;;;;;;;6.70;99.90;;;;;;5051288;28;19916;-83
2023/01/14 08:18:19;;;;;;;;;;;6.70;99.90;;;;;;5051286;28;19963;-76
2023/01/14 08:20:44;;;;;;;;;;;6.70;99.90;;;;;;5051326;28;19936;-77
2023/01/14 08:23:10;;;;;;;;;;;6.70;99.90;;;;;;5050545;28;19916;-76
2023/01/14 08:25:35;;;;;;;;;;;6.60;99.90;;;;;;5051148;28;19913;-76
2023/01/14 08:28:01;;;;;;;;;;;6.60;99.90;;;;;;5050489;28;20070;-77
2023/01/14 08:30:26;;;;;;;;;;;6.50;99.90;;;;;;5051300;28;19922;-76
2023/01/14 08:32:52;;;;;;;;;;;6.50;99.90;;;;;;5051331;28;19908;-76
2023/01/14 08:35:17;;;;;;;;;;;6.50;99.90;;;;;;5050797;28;19915;-76
2023/01/14 08:37:43;;;;;;;;;;;6.50;99.90;;;;;;5049753;28;19909;-76
2023/01/14 08:40:09;;;;;;;;;;;6.50;99.90;;;;;;5050550;28;20342;-76
2023/01/14 08:42:35;;;;;;;;;;;6.50;99.90;;;;;;5051081;28;19978;-76
2023/01/14 08:45:00;;;;;;;;;;;6.50;99.90;;;;;;5050403;28;19960;-75
2023/01/14 08:47:28;;;;;;;;;;;6.40;99.90;;;;;;5053434;28;19931;-76
2023/01/14 08:49:53;;;;;;;;;;;6.40;99.90;;;;;;5061657;28;19917;-77
2023/01/14 08:52:19;;;;;;;;;;;6.40;99.90;;;;;;5057831;28;19916;-76
2023/01/14 08:54:45;;;;;;;;;;;6.40;99.90;;;;;;5050808;28;19920;-77
2023/01/14 08:57:10;;;;;;;;;;;6.40;99.90;;;;;;5050136;28;19908;-76
2023/01/14 08:59:36;;;;;;;;;;;6.30;99.90;;;;;;5050764;28;19991;-75
2023/01/14 09:02:01;;;;;;;;;;;6.30;99.90;;;;;;5049840;28;19916;-77
2023/01/14 09:04:27;;;;;;;;;;;6.20;99.90;;;;;;5051014;28;19917;-78
2023/01/14 09:17:57;;;;;;;;;;;6.10;99.90;;;;;;5054400;28;19963;-82
2023/01/14 09:20:24;;;;;;;;;;;6.00;99.90;;;;;;5054050;28;20262;-76
2023/01/14 09:22:50;;;;;;;;;;;6.00;99.90;;;;;;5054182;28;19919;-76
2023/01/14 09:25:16;;;;;;;;;;;6.00;99.90;;;;;;5053681;28;19917;-76
2023/01/14 09:27:41;;;;;;;;;;;6.10;99.90;;;;;;5054269;28;19909;-76
2023/01/14 09:30:07;;;;;;;;;;;6.00;99.90;;;;;;5053568;28;19908;-76
2023/01/14 09:32:37;;;;;;;;;;;6.10;99.90;;;;;;5053962;28;20327;-75
2023/01/14 09:35:03;;;;;;;;;;;6.10;99.90;;;;;;5051826;28;19963;-76
2023/01/14 09:37:28;;;;;;;;;;;6.10;99.90;;;;;;5069529;28;19912;-77
2023/01/14 09:39:54;;;;;;;;;;;6.10;99.90;;;;;;5072514;28;19909;-76
2023/01/14 09:42:24;;;;;;;;;;;6.10;99.90;;;;;;5073494;28;20763;-76
2023/01/14 09:44:51;;;;;;;;;;;6.00;99.90;;;;;;5073550;28;19923;-76
2023/01/14 09:47:17;;;;;;;;;;;6.00;99.90;;;;;;5073381;28;19920;-77
2023/01/14 09:49:43;;;;;;;;;;;5.90;99.90;;;;;;5073495;28;19913;-75
2023/01/14 09:52:14;;;;;;;;;;;5.90;99.90;;;;;;5073337;28;20265;-76
2023/01/14 09:55:01;;;;;;;;;;;5.90;99.90;;;;;;5067598;28;19925;-76
2023/01/14 09:57:38;;;;;;;;;;;5.90;99.90;;;;;;5064072;28;19951;-77
2023/01/14 10:00:22;;;;;;;;;;;5.80;99.90;;;;;;5056933;28;19909;-77
2023/01/14 10:02:53;;;;;;;;;;;5.80;99.90;;;;;;5053047;28;19908;-76
2023/01/14 10:05:29;;;;;;;;;;;5.80;99.90;;;;;;5052846;28;20760;-76
2023/01/14 10:07:56;;;;;;;;;;;5.90;99.90;;;;;;5053964;28;19909;-77
2023/01/14 10:10:21;;;;;;;;;;;5.90;99.90;;;;;;5053353;28;19940;-77
2023/01/14 10:12:48;;;;;;;;;;;5.90;99.90;;;;;;5053445;28;20069;-76
2023/01/14 10:15:32;;;;;;;;;;;5.90;99.90;;;;;;5052805;28;19908;-76
2023/01/14 10:18:02;;;;;;;;;;;5.90;99.90;;;;;;5053194;28;19909;-76
2023/01/14 10:20:56;;;;;;;;;;;5.90;99.90;;;;;;5051739;28;19909;-77
2023/01/14 10:23:24;;;;;;;;;;;5.90;99.90;;;;;;5047292;28;20056;-76
2023/01/14 10:25:52;;;;;;;;;;;6.00;99.90;;;;;;5052972;28;20412;-76
2023/01/14 10:28:20;;;;;;;;;;;6.00;99.90;;;;;;5052514;28;20067;-76
2023/01/14 10:30:47;;;;;;;;;;;6.00;99.90;;;;;;5053790;28;19913;-76
2023/01/14 10:33:14;;;;;;;;;;;6.00;99.90;;;;;;5053502;28;19909;-76
2023/01/14 10:35:41;;;;;;;;;;;6.00;99.90;;;;;;5053001;28;19909;-75
2023/01/14 10:38:10;;;;;;;;;;;6.10;99.90;;;;;;5051518;28;19931;-77
2023/01/14 10:40:36;;;;;;;;;;;6.10;99.90;;;;;;5053099;28;20349;-77
2023/01/14 10:43:02;;;;;;;;;;;6.10;99.90;;;;;;5052375;28;20350;-87
2023/01/14 10:45:28;;;;;;;;;;;6.10;99.90;;;;;;5052183;28;20357;-77
2023/01/14 10:47:55;;;;;;;;;;;6.10;99.90;;;;;;5054926;28;19928;-77
2023/01/14 10:50:20;;;;;;;;;;;6.10;99.90;;;;;;5050996;28;19909;-76
2023/01/14 10:52:46;;;;;;;;;;;6.10;99.90;;;;;;5052302;28;20323;-76
2023/01/14 10:55:17;;;;;;;;;;;6.10;99.90;;;;;;5052082;28;19916;-76
2023/01/14 10:57:47;;;;;;;;;;;6.20;99.90;;;;;;5052714;28;19908;-78
2023/01/14 11:00:33;;;;;;;;;;;6.20;99.90;;;;;;5052141;28;19919;-77
2023/01/14 11:02:59;;;;;;;;;;;6.20;99.90;;;;;;5051575;28;19909;-77
2023/01/14 11:05:25;;;;;;;;;;;6.10;99.90;;;;;;5051558;28;20022;-76
2023/01/14 11:07:51;;;;;;;;;;;6.20;99.90;;;;;;5062483;28;20030;-76
2023/01/14 11:10:19;;;;;;;;;;;6.20;99.90;;;;;;5060180;28;19912;-76
2023/01/14 11:12:44;;;;;;;;;;;6.20;99.90;;;;;;5071988;28;19908;-76
2023/01/14 11:15:28;;;;;;;;;;;6.20;99.90;;;;;;5070895;28;19966;-77
2023/01/14 11:17:54;;;;;;;;;;;6.20;99.90;;;;;;5066448;28;19919;-77
2023/01/14 11:20:23;;;;;;;;;;;6.30;99.90;;;;;;5063041;28;20269;-77
2023/01/14 11:23:15;;;;;;;;;;;6.30;99.90;;;;;;5062130;28;19955;-77
2023/01/14 11:25:41;;;;;;;;;;;6.30;99.90;;;;;;5048636;28;19933;-77
2023/01/14 11:28:07;;;;;;;;;;;6.30;99.90;;;;;;5051551;28;19908;-83
2023/01/14 11:30:33;;;;;;;;;;;6.30;99.90;;;;;;5050985;28;19931;-77
2023/01/14 11:32:59;;;;;;;;;;;6.30;99.90;;;;;;5052061;28;19951;-77
2023/01/14 11:35:28;;;;;;;;;;;6.40;99.90;;;;;;5051118;28;19956;-77
2023/01/14 11:37:55;;;;;;;;;;;6.30;99.90;;;;;;5051697;28;19992;-81
2023/01/14 11:40:20;;;;;;;;;;;6.30;99.90;;;;;;5051168;28;19909;-77
2023/01/14 11:42:46;;;;;;;;;;;6.40;99.90;;;;;;5051619;28;19916;-77
2023/01/14 11:45:12;;;;;;;;;;;6.40;99.90;;;;;;5053965;28;19920;-77
2023/01/14 11:47:54;;;;;;;;;;;6.40;99.90;;;;;;5070660;28;20054;-77
2023/01/14 11:50:19;;;;;;;;;;;6.40;99.90;;;;;;5071311;28;19912;-79
2023/01/14 11:53:05;;;;;;;;;;;6.40;99.90;;;;;;5071778;28;19924;-76
2023/01/14 11:55:32;;;;;;;;;;;6.50;99.90;;;;;;5071246;28;19998;-77
2023/01/14 11:58:16;;;;;;;;;;;6.50;99.90;;;;;;5071198;28;20325;-76
2023/01/14 12:00:44;;;;;;;;;;;6.50;99.90;;;;;;5069567;28;20019;-76
2023/01/14 12:03:15;;;;;;;;;;;6.50;99.90;;;;;;5070930;28;20314;-77
2023/01/14 12:05:43;;;;;;;;;;;6.60;99.90;;;;;;5069588;28;20004;-77
2023/01/14 12:08:14;;;;;;;;;;;6.60;99.90;;;;;;5070629;28;20390;-78
2023/01/14 12:10:42;;;;;;;;;;;6.60;99.90;;;;;;5071601;28;19909;-77
2023/01/14 12:19:05;;;;;;;;;;;6.80;99.90;;;;;;5071290;28;20003;-77
2023/01/14 12:21:34;;;;;;;;;;;6.80;99.90;;;;;;5071187;28;19955;-77
2023/01/14 12:24:04;;;;;;;;;;;6.80;99.90;;;;;;5065300;28;19956;-76
2023/01/14 12:26:36;;;;;;;;;;;6.80;99.90;;;;;;5064412;28;19927;-76
2023/01/14 12:29:03;;;;;;;;;;;6.90;99.90;;;;;;5060804;28;19999;-76
2023/01/14 12:31:33;;;;;;;;;;;7.00;99.90;;;;;;5065192;28;19908;-75
2023/01/14 12:34:21;;;;;;;;;;;7.00;99.90;;;;;;5070953;28;20333;-75
2023/01/14 12:36:50;;;;;;;;;;;7.00;99.90;;;;;;5058893;28;20330;-76
2023/01/14 12:47:55;;;;;;;;;;;7.00;99.90;;;;;;5053494;28;20273;-76
2023/01/14 12:50:21;;;;;;;;;;;7.00;99.90;;;;;;5060517;28;19913;-76
2023/01/14 12:52:48;;;;;;;;;;;7.00;99.90;;;;;;5058765;28;19924;-76
2023/01/14 12:55:37;;;;;;;;;;;7.00;99.90;;;;;;5056656;28;20290;-77
2023/01/14 12:58:04;;;;;;;;;;;7.00;99.90;;;;;;5055315;28;19917;-76
2023/01/14 13:00:31;;;;;;;;;;;6.90;99.90;;;;;;5060231;28;19952;-77
2023/01/14 13:03:00;;;;;;;;;;;6.90;99.90;;;;;;5055104;28;20499;-76
2023/01/14 13:05:37;;;;;;;;;;;6.90;99.90;;;;;;5050378;28;19927;-77
2023/01/14 13:08:04;;;;;;;;;;;7.00;99.90;;;;;;5057794;28;20003;-77
2023/01/14 13:10:29;;;;;;;;;;;7.10;99.90;;;;;;5058941;28;20473;-78
2023/01/14 13:12:55;;;;;;;;;;;7.10;99.90;;;;;;5061312;28;19920;-76
2023/01/14 13:15:25;;;;;;;;;;;7.20;99.90;;;;;;5060041;28;19908;-76
2023/01/14 13:17:58;;;;;;;;;;;7.30;99.90;;;;;;5060066;28;20388;-77
2023/01/14 13:20:26;;;;;;;;;;;7.40;99.90;;;;;;5060644;28;19909;-76
2023/01/14 13:23:02;;;;;;;;;;;7.40;99.90;;;;;;5059369;28;19916;-76
2023/01/14 13:25:40;;;;;;;;;;;7.40;99.90;;;;;;5060648;28;19916;-76
2023/01/14 13:28:12;;;;;;;;;;;7.40;99.90;;;;;;5059443;28;19909;-77
2023/01/14 13:30:50;;;;;;;;;;;7.40;99.90;;;;;;5056074;28;19920;-84
2023/01/14 13:33:23;;;;;;;;;;;7.30;99.90;;;;;;5058708;28;20277;-76
2023/01/14 13:36:01;;;;;;;;;;;7.30;99.90;;;;;;5062326;28;20305;-76
2023/01/14 13:38:28;;;;;;;;;;;7.30;99.90;;;;;;5061299;28;19931;-76
2023/01/14 13:41:06;;;;;;;;;;;7.30;99.90;;;;;;5061351;28;20240;-75
2023/01/14 13:43:52;;;;;;;;;;;7.40;99.90;;;;;;5060154;28;19913;-75
2023/01/14 13:46:20;;;;;;;;;;;7.30;99.90;;;;;;5061178;28;20019;-76
2023/01/14 13:48:54;;;;;;;;;;;7.30;99.90;;;;;;5061083;28;19908;-76
2023/01/14 13:51:27;;;;;;;;;;;7.40;99.90;;;;;;5058177;28;19912;-76
2023/01/14 13:53:59;;;;;;;;;;;7.40;99.90;;;;;;5060017;28;19925;-77
2023/01/14 13:56:25;;;;;;;;;;;7.50;99.90;;;;;;5064574;28;20365;-76
2023/01/14 13:58:52;;;;;;;;;;;7.50;99.90;;;;;;5064740;28;19934;-76
2023/01/14 14:01:28;;;;;;;;;;;7.60;99.90;;;;;;5062828;28;19944;-81
2023/01/14 14:03:54;;;;;;;;;;;7.50;99.90;;;;;;5063241;28;19917;-75
2023/01/14 14:06:20;;;;;;;;;;;7.40;99.90;;;;;;5068168;28;19966;-76
2023/01/14 14:08:57;;;;;;;;;;;7.40;99.90;;;;;;5065129;28;19921;-76
2023/01/14 14:11:24;;;;;;;;;;;7.30;99.90;;;;;;5062724;28;19913;-76
2023/01/14 14:14:07;;;;;;;;;;;7.10;99.90;;;;;;5062191;28;19920;-77
2023/01/14 14:16:35;;;;;;;;;;;6.90;99.90;;;;;;5064470;28;20459;-76
2023/01/14 14:19:07;;;;;;;;;;;6.70;99.90;;;;;;5056905;28;19909;-76
2023/01/14 14:21:53;;;;;;;;;;;6.70;99.90;;;;;;5055920;28;19917;-76
2023/01/14 14:24:22;;;;;;;;;;;6.60;99.90;;;;;;5066228;28;19936;-77
2023/01/14 14:26:49;;;;;;;;;;;6.60;99.90;;;;;;5062971;28;19909;-77
2023/01/14 14:29:16;;;;;;;;;;;6.50;99.90;;;;;;5062464;28;19920;-77
2023/01/14 14:31:44;;;;;;;;;;;6.50;99.90;;;;;;5058645;28;19909;-76
2023/01/14 14:34:20;;;;;;;;;;;6.40;99.90;;;;;;5054067;28;19909;-74
2023/01/14 14:36:59;;;;;;;;;;;6.40;99.90;;;;;;5053750;28;20368;-75
2023/01/14 14:39:32;;;;;;;;;;;6.30;99.90;;;;;;5052835;28;19909;-76
2023/01/14 14:42:00;;;;;;;;;;;6.30;99.90;;;;;;5053692;28;19920;-79
2023/01/14 14:44:28;;;;;;;;;;;6.30;99.90;;;;;;5053138;28;20033;-76
2023/01/14 14:46:54;;;;;;;;;;;6.30;99.90;;;;;;5053543;28;19908;-76
2023/01/14 14:49:20;;;;;;;;;;;6.30;99.90;;;;;;5053160;28;19909;-76
2023/01/14 14:51:47;;;;;;;;;;;6.20;99.90;;;;;;5053551;28;20414;-76
2023/01/14 14:54:26;;;;;;;;;;;6.20;99.90;;;;;;5053087;28;19943;-80
2023/01/14 14:56:53;;;;;;;;;;;6.20;99.90;;;;;;5053599;28;20319;-77
2023/01/14 14:59:19;;;;;;;;;;;6.10;99.90;;;;;;5060846;28;19919;-77
2023/01/14 15:01:46;;;;;;;;;;;6.10;99.90;;;;;;5062630;28;19912;-77
2023/01/14 15:04:15;;;;;;;;;;;6.10;99.90;;;;;;5063575;28;19924;-81
2023/01/14 15:06:41;;;;;;;;;;;6.10;99.90;;;;;;5063222;28;20269;-77
2023/01/14 15:09:09;;;;;;;;;;;6.10;99.90;;;;;;5061615;28;19913;-76
2023/01/14 15:11:37;;;;;;;;;;;6.10;99.90;;;;;;5061740;28;20402;-76
2023/01/14 15:14:03;;;;;;;;;;;6.10;99.90;;;;;;5061030;28;19920;-78
2023/01/14 15:16:34;;;;;;;;;;;6.10;99.90;;;;;;5061670;28;19908;-77
2023/01/14 15:19:00;;;;;;;;;;;6.00;99.90;;;;;;5059046;28;20290;-77